createdAt,value
2023-04-20T00:00:38.000Z,7.9
2023-04-20T00:04:11.000Z,11.9
2023-04-20T00:07:43.000Z,9.2
2023-04-20T00:11:16.000Z,7
2023-04-20T00:14:49.000Z,7.2
2023-04-20T00:18:22.000Z,8.8
2023-04-20T00:21:54.000Z,9.5
2023-04-20T00:25:27.000Z,9.9
2023-04-20T00:28:59.000Z,9.9
2023-04-20T00:32:32.000Z,9
2023-04-20T00:35:23.000Z,10.8
2023-04-20T00:38:56.000Z,10.8
2023-04-20T00:42:29.000Z,10
2023-04-20T00:46:01.000Z,11.7
2023-04-20T00:49:34.000Z,8.7
2023-04-20T00:53:07.000Z,11.1
2023-04-20T00:56:39.000Z,9.9
2023-04-20T01:00:12.000Z,11.1
2023-04-20T01:03:45.000Z,12.6
2023-04-20T01:07:18.000Z,11.5
2023-04-20T01:10:51.000Z,10.3
2023-04-20T01:13:42.000Z,11.2
2023-04-20T01:17:14.000Z,9.1
2023-04-20T01:20:47.000Z,10
2023-04-20T01:24:20.000Z,12
2023-04-20T01:27:52.000Z,11.1
2023-04-20T01:31:25.000Z,11.3
2023-04-20T01:34:58.000Z,11.6
2023-04-20T01:38:30.000Z,13.6
2023-04-20T01:42:03.000Z,12.5
2023-04-20T01:45:36.000Z,10.7
2023-04-20T01:49:08.000Z,11.7
2023-04-20T01:52:00.000Z,10.5
2023-04-20T01:55:32.000Z,12.3
2023-04-20T01:59:05.000Z,10.8
2023-04-20T02:02:38.000Z,11.7
2023-04-20T02:06:10.000Z,13.4
2023-04-20T02:09:43.000Z,9.1
2023-04-20T02:13:16.000Z,10.5
2023-04-20T02:16:48.000Z,13.1
2023-04-20T02:20:21.000Z,11.6
2023-04-20T02:23:54.000Z,11.6
2023-04-20T02:27:26.000Z,11.1
2023-04-20T02:30:17.000Z,11.2
2023-04-20T02:33:50.000Z,14.2
2023-04-20T02:37:23.000Z,14.2
2023-04-20T02:40:55.000Z,11
2023-04-20T02:44:28.000Z,9.6
2023-04-20T02:48:01.000Z,11.1
2023-04-20T02:51:33.000Z,12.5
2023-04-20T02:55:06.000Z,12.7
2023-04-20T02:58:39.000Z,12.1
2023-04-20T03:02:11.000Z,12.7
2023-04-20T03:05:45.000Z,11.4
2023-04-20T03:08:36.000Z,14.7
2023-04-20T03:12:09.000Z,11.9
2023-04-20T03:15:42.000Z,12.7
2023-04-20T03:19:14.000Z,10.2
2023-04-20T03:22:47.000Z,13.6
2023-04-20T03:26:19.000Z,11.7
2023-04-20T03:29:52.000Z,11.2
2023-04-20T03:33:25.000Z,12.3
2023-04-20T03:36:58.000Z,11.7
2023-04-20T03:40:30.000Z,10.5
2023-04-20T03:44:03.000Z,8.9
2023-04-20T03:46:54.000Z,10
2023-04-20T03:50:27.000Z,8
2023-04-20T03:53:59.000Z,7
2023-04-20T03:57:32.000Z,6.7
2023-04-20T04:01:04.000Z,7.1
2023-04-20T04:04:37.000Z,7.1
2023-04-20T04:08:10.000Z,6.1
2023-04-20T04:11:43.000Z,7.3
2023-04-20T04:15:15.000Z,6.6
2023-04-20T04:18:48.000Z,6.2
2023-04-20T04:22:21.000Z,5.8
2023-04-20T04:25:14.000Z,6.2
2023-04-20T04:28:46.000Z,5.5
2023-04-20T04:32:19.000Z,6.8
2023-04-20T04:35:52.000Z,5.6
2023-04-20T04:39:24.000Z,5.3
2023-04-20T04:42:57.000Z,5.4
2023-04-20T04:46:30.000Z,6.1
2023-04-20T04:50:05.000Z,6.5
2023-04-20T04:53:38.000Z,5.6
2023-04-20T04:57:13.000Z,5
2023-04-20T05:00:46.000Z,5.2
2023-04-20T05:03:37.000Z,5.6
2023-04-20T05:07:10.000Z,5.2
2023-04-20T05:10:42.000Z,5.5
2023-04-20T05:14:15.000Z,5.4
2023-04-20T05:17:48.000Z,6.2
2023-04-20T05:21:20.000Z,5.3
2023-04-20T05:24:53.000Z,7.3
2023-04-20T05:28:26.000Z,7.5
2023-04-20T05:32:15.000Z,6.9
2023-04-20T05:35:48.000Z,5.8
2023-04-20T05:39:20.000Z,5.5
2023-04-20T05:42:12.000Z,6.1
2023-04-20T05:45:44.000Z,5.2
2023-04-20T05:49:17.000Z,5.3
2023-04-20T05:52:49.000Z,6.3
2023-04-20T05:56:22.000Z,5.8
2023-04-20T05:59:55.000Z,7.1
2023-04-20T06:03:27.000Z,7
2023-04-20T06:07:01.000Z,7.6
2023-04-20T06:10:33.000Z,6.4
2023-04-20T06:14:06.000Z,5.8
2023-04-20T06:17:38.000Z,5.6
2023-04-20T06:20:30.000Z,5.5
2023-04-20T06:24:02.000Z,5.8
2023-04-20T06:27:35.000Z,5.8
2023-04-20T06:31:07.000Z,6.9
2023-04-20T06:34:40.000Z,5.4
2023-04-20T06:38:13.000Z,5.3
2023-04-20T06:41:45.000Z,7.2
2023-04-20T06:45:18.000Z,5.4
2023-04-20T06:48:51.000Z,6.6
2023-04-20T06:52:23.000Z,58.5
2023-04-20T06:55:56.000Z,34.1
2023-04-20T06:58:47.000Z,6.3
2023-04-20T07:02:20.000Z,11.7
2023-04-20T07:05:53.000Z,14.7
2023-04-20T07:09:25.000Z,9.4
2023-04-20T07:12:58.000Z,12.5
2023-04-20T07:16:31.000Z,14.1
2023-04-20T07:20:03.000Z,12.2
2023-04-20T07:23:36.000Z,14.9
2023-04-20T07:27:10.000Z,14.2
2023-04-20T07:30:43.000Z,9
2023-04-20T07:34:16.000Z,7.3
2023-04-20T07:37:07.000Z,6.8
2023-04-20T07:40:40.000Z,6.2
2023-04-20T07:44:12.000Z,7.4
2023-04-20T07:47:45.000Z,7.1
2023-04-20T07:51:18.000Z,6.4
2023-04-20T07:54:51.000Z,11.3
2023-04-20T07:58:24.000Z,8
2023-04-20T08:01:56.000Z,9.2
2023-04-20T08:05:30.000Z,8.7
2023-04-20T08:09:03.000Z,9.9
2023-04-20T08:12:38.000Z,8.9
2023-04-20T08:15:29.000Z,9.2
2023-04-20T08:19:02.000Z,11.3
2023-04-20T08:22:35.000Z,9.9
2023-04-20T08:26:07.000Z,10.4
2023-04-20T08:29:40.000Z,12.1
2023-04-20T08:33:13.000Z,11
2023-04-20T08:36:45.000Z,9.6
2023-04-20T08:40:29.000Z,11.3
2023-04-20T08:44:02.000Z,12.6
2023-04-20T08:47:34.000Z,9.5
2023-04-20T08:51:07.000Z,8.8
2023-04-20T08:53:58.000Z,11.2
2023-04-20T08:57:31.000Z,14
2023-04-20T09:01:04.000Z,9.4
2023-04-20T09:04:42.000Z,10.7
2023-04-20T09:08:15.000Z,9.7
2023-04-20T09:11:48.000Z,10.6
2023-04-20T09:15:21.000Z,11.3
2023-04-20T09:18:53.000Z,10.6
2023-04-20T09:22:26.000Z,12.7
2023-04-20T09:25:59.000Z,10.3
2023-04-20T09:29:31.000Z,10.8
2023-04-20T09:32:23.000Z,10.4
2023-04-20T09:35:55.000Z,9.8
2023-04-20T09:39:28.000Z,9.6
2023-04-20T09:43:01.000Z,8.4
2023-04-20T09:46:33.000Z,6.1
2023-04-20T09:50:06.000Z,6.7
2023-04-20T09:53:54.000Z,8.1
2023-04-20T09:57:27.000Z,9.3
2023-04-20T10:00:59.000Z,8.7
2023-04-20T10:04:32.000Z,8
2023-04-20T10:08:05.000Z,8.7
2023-04-20T10:10:56.000Z,8.5
2023-04-20T10:14:29.000Z,8.5
2023-04-20T10:18:02.000Z,8.4
2023-04-20T10:21:35.000Z,8.7
2023-04-20T10:25:07.000Z,9.2
2023-04-20T10:28:40.000Z,6.9
2023-04-20T10:32:12.000Z,9.2
2023-04-20T10:35:45.000Z,11.1
2023-04-20T10:39:18.000Z,9.8
2023-04-20T10:42:50.000Z,9.4
2023-04-20T10:46:23.000Z,11.3
2023-04-20T10:49:14.000Z,8.2
2023-04-20T10:52:47.000Z,9.7
2023-04-20T10:56:20.000Z,11
2023-04-20T10:59:52.000Z,6.7
2023-04-20T11:03:25.000Z,12.2
2023-04-20T11:06:58.000Z,10
2023-04-20T11:10:31.000Z,12.1
2023-04-20T11:14:03.000Z,9.7
2023-04-20T11:17:36.000Z,9
2023-04-20T11:21:09.000Z,9
2023-04-20T11:24:41.000Z,14.3
2023-04-20T11:27:32.000Z,10
2023-04-20T11:31:05.000Z,11.6
2023-04-20T11:34:38.000Z,9
2023-04-20T11:38:15.000Z,9.1
2023-04-20T11:41:47.000Z,8.1
2023-04-20T11:45:20.000Z,10.3
2023-04-20T11:48:53.000Z,7.8
2023-04-20T11:52:25.000Z,9.9
2023-04-20T11:55:58.000Z,7.2
2023-04-20T11:59:31.000Z,8.4
2023-04-20T12:03:03.000Z,8.6
2023-04-20T12:05:55.000Z,7.6
2023-04-20T12:09:27.000Z,9.3
2023-04-20T12:13:00.000Z,7.3
2023-04-20T12:16:32.000Z,8.5
2023-04-20T12:20:05.000Z,8.3
2023-04-20T12:23:38.000Z,7.3
2023-04-20T12:27:10.000Z,7.9
2023-04-20T12:30:43.000Z,8
2023-04-20T12:34:16.000Z,11.3
2023-04-20T12:37:49.000Z,7.1
2023-04-20T12:41:21.000Z,9.2
2023-04-20T12:44:12.000Z,8.2
2023-04-20T12:47:46.000Z,8.6
2023-04-20T12:51:21.000Z,7.8
2023-04-20T12:54:54.000Z,8.5
2023-04-20T12:58:27.000Z,7.5
2023-04-20T13:01:59.000Z,8.1
2023-04-20T13:05:32.000Z,10.2
2023-04-20T13:09:05.000Z,11.1
2023-04-20T13:12:38.000Z,9.7
2023-04-20T13:16:10.000Z,9.1
2023-04-20T13:19:43.000Z,11.5
2023-04-20T13:22:34.000Z,10.8
2023-04-20T13:26:22.000Z,10.1
2023-04-20T13:29:54.000Z,11.9
2023-04-20T13:33:27.000Z,12.4
2023-04-20T13:37:00.000Z,10.5
2023-04-20T13:40:32.000Z,9.6
2023-04-20T13:44:05.000Z,11.5
2023-04-20T13:47:38.000Z,10.1
2023-04-20T13:51:12.000Z,12.2
2023-04-20T13:54:44.000Z,7.4
2023-04-20T13:58:17.000Z,11.7
2023-04-20T14:01:09.000Z,12.1
2023-04-20T14:04:42.000Z,11.6
2023-04-20T14:08:14.000Z,11.1
2023-04-20T14:11:47.000Z,11.5
2023-04-20T14:15:22.000Z,11.6
2023-04-20T14:18:55.000Z,12.5
2023-04-20T14:22:27.000Z,12.5
2023-04-20T14:26:00.000Z,12.2
2023-04-20T14:29:33.000Z,11.8
2023-04-20T14:33:05.000Z,12.4
2023-04-20T14:36:38.000Z,11.6
2023-04-20T14:39:29.000Z,11.4
2023-04-20T14:43:01.000Z,11.3
2023-04-20T14:46:34.000Z,12.4
2023-04-20T14:50:08.000Z,13.9
2023-04-20T14:53:40.000Z,17.9
2023-04-20T14:57:13.000Z,14.4
2023-04-20T15:00:46.000Z,14.3
2023-04-20T15:04:18.000Z,13.9
2023-04-20T15:07:52.000Z,14
2023-04-20T15:11:24.000Z,17.6
2023-04-20T15:14:57.000Z,15.4
2023-04-20T15:17:48.000Z,18.1
2023-04-20T15:21:21.000Z,20.8
2023-04-20T15:24:54.000Z,22.7
2023-04-20T15:28:26.000Z,21.8
2023-04-20T15:31:59.000Z,20
2023-04-20T15:35:32.000Z,19.9
2023-04-20T15:39:04.000Z,20.3
2023-04-20T15:42:37.000Z,19.4
2023-04-20T15:46:10.000Z,25.7
2023-04-20T15:49:42.000Z,22.7
2023-04-20T15:53:15.000Z,22.7
2023-04-20T15:56:06.000Z,21.3
2023-04-20T15:59:41.000Z,20.1
2023-04-20T16:03:13.000Z,20.9
2023-04-20T16:06:46.000Z,19.4
2023-04-20T16:10:19.000Z,20.9
2023-04-20T16:13:52.000Z,100
2023-04-20T16:17:24.000Z,45.2
2023-04-20T16:20:57.000Z,26.1
2023-04-20T16:24:30.000Z,21.8
2023-04-20T16:28:03.000Z,21.3
2023-04-20T16:31:35.000Z,20.1
2023-04-20T16:34:27.000Z,18.4
2023-04-20T16:37:59.000Z,19.8
2023-04-20T16:41:35.000Z,17.9
2023-04-20T16:45:08.000Z,18.5
2023-04-20T16:48:40.000Z,17.4
2023-04-20T16:52:13.000Z,17.5
2023-04-20T16:55:46.000Z,18.4
2023-04-20T16:59:18.000Z,18.2
2023-04-20T17:02:51.000Z,17.2
2023-04-20T17:06:24.000Z,16.8
2023-04-20T17:09:57.000Z,50.4
2023-04-20T17:12:48.000Z,55.4
2023-04-20T17:16:21.000Z,25.8
2023-04-20T17:19:54.000Z,22.4
2023-04-20T17:23:26.000Z,24.4
2023-04-20T17:26:59.000Z,24.7
2023-04-20T17:30:31.000Z,27.1
2023-04-20T17:34:04.000Z,24.9
2023-04-20T17:37:37.000Z,23.3
2023-04-20T17:41:09.000Z,25.5
2023-04-20T17:44:42.000Z,24.7
2023-04-20T17:48:15.000Z,25.8
2023-04-20T17:51:06.000Z,26.4
2023-04-20T17:54:39.000Z,22.7
2023-04-20T17:58:11.000Z,24.5
2023-04-20T18:01:44.000Z,22.9
2023-04-20T18:05:17.000Z,25.5
2023-04-20T18:08:50.000Z,27.3
2023-04-20T18:12:22.000Z,27.2
2023-04-20T18:15:55.000Z,27.2
2023-04-20T18:19:28.000Z,25.9
2023-04-20T18:23:00.000Z,24.7
2023-04-20T18:26:33.000Z,28
2023-04-20T18:29:24.000Z,28.5
2023-04-20T18:32:57.000Z,28.7
2023-04-20T18:36:30.000Z,33.4
2023-04-20T18:40:03.000Z,33.1
2023-04-20T18:43:35.000Z,32
2023-04-20T18:47:08.000Z,34.1
2023-04-20T18:50:41.000Z,31.9
2023-04-20T18:54:13.000Z,32.3
2023-04-20T18:57:46.000Z,38.1
2023-04-20T19:01:19.000Z,38.4
2023-04-20T19:04:52.000Z,39.8
2023-04-20T19:07:43.000Z,43.6
2023-04-20T19:11:15.000Z,42.6
2023-04-20T19:14:48.000Z,42.8
2023-04-20T19:18:21.000Z,43.4
2023-04-20T19:21:53.000Z,42.5
2023-04-20T19:25:26.000Z,45.5
2023-04-20T19:28:58.000Z,41.8
2023-04-20T19:32:31.000Z,48.9
2023-04-20T19:36:04.000Z,48.8
2023-04-20T19:39:36.000Z,43.4
2023-04-20T19:43:09.000Z,47.6
2023-04-20T19:46:00.000Z,46.1
2023-04-20T19:49:33.000Z,43.1
2023-04-20T19:53:06.000Z,44.6
2023-04-20T19:56:38.000Z,42.3
2023-04-20T20:00:11.000Z,43.2
2023-04-20T20:03:44.000Z,39.9
2023-04-20T20:07:17.000Z,43.8
2023-04-20T20:10:49.000Z,45.4
2023-04-20T20:14:22.000Z,41.4
2023-04-20T20:17:55.000Z,45.5
2023-04-20T20:21:27.000Z,43.8
2023-04-20T20:24:19.000Z,44.8
2023-04-20T20:27:51.000Z,44.1
2023-04-20T20:31:24.000Z,44.5
2023-04-20T20:34:56.000Z,43.5
2023-04-20T20:38:29.000Z,44.7
2023-04-20T20:42:02.000Z,45.7
2023-04-20T20:45:34.000Z,47
2023-04-20T20:49:07.000Z,43
2023-04-20T20:52:40.000Z,42
2023-04-20T20:56:12.000Z,42
2023-04-20T20:59:45.000Z,43.9
2023-04-20T21:02:37.000Z,45.4
2023-04-20T21:06:10.000Z,45.2
2023-04-20T21:09:43.000Z,45.5
2023-04-20T21:13:15.000Z,43.8
2023-04-20T21:16:48.000Z,43.4
2023-04-20T21:20:21.000Z,44.8
2023-04-20T21:23:53.000Z,40.4
2023-04-20T21:27:26.000Z,44
2023-04-20T21:30:59.000Z,45.8
2023-04-20T21:34:32.000Z,46.2
2023-04-20T21:38:04.000Z,46
2023-04-20T21:40:55.000Z,47.6
2023-04-20T21:44:28.000Z,40.1
2023-04-20T21:48:01.000Z,42.2
2023-04-20T21:51:33.000Z,42.4
2023-04-20T21:55:06.000Z,44.4
2023-04-20T21:58:38.000Z,48.3
2023-04-20T22:02:11.000Z,50.7
2023-04-20T22:05:44.000Z,47
2023-04-20T22:09:17.000Z,51.5
2023-04-20T22:12:49.000Z,46.8
2023-04-20T22:16:22.000Z,41.7
2023-04-20T22:19:14.000Z,46.3
2023-04-20T22:22:46.000Z,43.7
2023-04-20T22:26:19.000Z,46.3
2023-04-20T22:29:52.000Z,45.8
2023-04-20T22:33:24.000Z,48.9
2023-04-20T22:36:57.000Z,49.8
2023-04-20T22:40:29.000Z,43.2
2023-04-20T22:44:02.000Z,46.6
2023-04-20T22:47:35.000Z,47.5
2023-04-20T22:51:07.000Z,46.7
2023-04-20T22:54:40.000Z,46.2
2023-04-20T22:57:32.000Z,50.7
2023-04-20T23:01:04.000Z,51.2
2023-04-20T23:04:37.000Z,53.2
2023-04-20T23:08:10.000Z,48.8
2023-04-20T23:11:42.000Z,49.9
2023-04-20T23:15:15.000Z,55.1
2023-04-20T23:18:48.000Z,53.7
2023-04-20T23:22:20.000Z,53.1
2023-04-20T23:25:53.000Z,54.9
2023-04-20T23:29:26.000Z,53.2
2023-04-20T23:32:58.000Z,54.4
2023-04-20T23:35:50.000Z,56.3
2023-04-20T23:39:22.000Z,52.4
2023-04-20T23:42:55.000Z,58
2023-04-20T23:46:28.000Z,52.4
2023-04-20T23:50:00.000Z,51.4
2023-04-20T23:53:33.000Z,52.2
2023-04-20T23:57:06.000Z,49.1
